sensor_id;sensor_type;location;lat;lon;timestamp;pressure;altitude;pressure_sealevel;temperature;humidity
70730;BME280;58315;53.336;55.932;2023-05-22T00:00:06;100805.03;;;14.85;47.26
70730;BME280;58315;53.336;55.932;2023-05-22T00:02:36;100803.88;;;14.88;47.30
70730;BME280;58315;53.336;55.932;2023-05-22T00:05:12;100811.72;;;14.80;47.65
70730;BME280;58315;53.336;55.932;2023-05-22T00:07:39;100803.88;;;14.78;46.98
70730;BME280;58315;53.336;55.932;2023-05-22T00:10:08;100815.94;;;14.82;46.65
70730;BME280;58315;53.336;55.932;2023-05-22T00:12:34;100819.13;;;14.76;46.43
70730;BME280;58315;53.336;55.932;2023-05-22T00:15:00;100818.53;;;14.63;46.75
70730;BME280;58315;53.336;55.932;2023-05-22T00:17:28;100825.69;;;14.41;47.43
70730;BME280;58315;53.336;55.932;2023-05-22T00:19:55;100826.44;;;14.22;47.99
70730;BME280;58315;53.336;55.932;2023-05-22T00:22:26;100830.47;;;14.17;48.21
70730;BME280;58315;53.336;55.932;2023-05-22T00:24:53;100836.69;;;14.06;48.63
70730;BME280;58315;53.336;55.932;2023-05-22T00:27:19;100831.44;;;13.95;49.12
70730;BME280;58315;53.336;55.932;2023-05-22T00:29:45;100837.00;;;13.92;49.02
70730;BME280;58315;53.336;55.932;2023-05-22T00:32:11;100837.59;;;13.95;48.74
70730;BME280;58315;53.336;55.932;2023-05-22T00:34:37;100837.34;;;13.98;48.62
70730;BME280;58315;53.336;55.932;2023-05-22T00:37:03;100840.72;;;14.01;48.23
70730;BME280;58315;53.336;55.932;2023-05-22T00:39:29;100840.00;;;13.98;48.38
70730;BME280;58315;53.336;55.932;2023-05-22T00:41:55;100839.28;;;13.96;48.78
70730;BME280;58315;53.336;55.932;2023-05-22T00:44:21;100845.50;;;14.07;48.42
70730;BME280;58315;53.336;55.932;2023-05-22T00:46:49;100847.91;;;14.10;48.71
70730;BME280;58315;53.336;55.932;2023-05-22T00:49:15;100849.66;;;14.20;48.30
70730;BME280;58315;53.336;55.932;2023-05-22T00:51:41;100846.06;;;14.31;48.45
70730;BME280;58315;53.336;55.932;2023-05-22T00:54:09;100850.47;;;14.42;48.34
70730;BME280;58315;53.336;55.932;2023-05-22T00:56:35;100848.84;;;14.51;48.12
70730;BME280;58315;53.336;55.932;2023-05-22T00:59:01;100851.41;;;14.52;48.38
70730;BME280;58315;53.336;55.932;2023-05-22T01:01:27;100851.41;;;14.62;48.17
70730;BME280;58315;53.336;55.932;2023-05-22T01:04:03;100852.44;;;15.11;47.69
70730;BME280;58315;53.336;55.932;2023-05-22T01:06:32;100854.63;;;15.65;46.82
70730;BME280;58315;53.336;55.932;2023-05-22T01:08:58;100857.50;;;16.11;45.91
70730;BME280;58315;53.336;55.932;2023-05-22T01:11:30;100855.03;;;16.47;45.17
70730;BME280;58315;53.336;55.932;2023-05-22T01:20:29;100866.34;;;16.68;44.07
70730;BME280;58315;53.336;55.932;2023-05-22T01:31:26;100874.22;;;15.94;45.99
70730;BME280;58315;53.336;55.932;2023-05-22T01:33:56;100873.69;;;15.80;46.31
70730;BME280;58315;53.336;55.932;2023-05-22T01:36:27;100869.63;;;15.76;46.49
70730;BME280;58315;53.336;55.932;2023-05-22T01:38:54;100876.63;;;15.77;46.35
70730;BME280;58315;53.336;55.932;2023-05-22T01:41:21;100872.69;;;15.81;46.77
70730;BME280;58315;53.336;55.932;2023-05-22T01:43:47;100881.97;;;15.77;46.73
70730;BME280;58315;53.336;55.932;2023-05-22T01:46:14;100883.91;;;15.75;46.87
70730;BME280;58315;53.336;55.932;2023-05-22T01:48:40;100884.75;;;15.76;47.51
70730;BME280;58315;53.336;55.932;2023-05-22T01:56:29;100887.41;;;16.05;47.48
70730;BME280;58315;53.336;55.932;2023-05-22T01:59:20;100879.41;;;16.14;47.50
70730;BME280;58315;53.336;55.932;2023-05-22T02:01:50;100887.28;;;16.06;47.75
70730;BME280;58315;53.336;55.932;2023-05-22T02:04:21;100881.38;;;16.12;47.44
70730;BME280;58315;53.336;55.932;2023-05-22T02:06:48;100883.63;;;16.17;46.97
70730;BME280;58315;53.336;55.932;2023-05-22T02:09:18;100887.56;;;16.13;47.91
70730;BME280;58315;53.336;55.932;2023-05-22T02:11:46;100889.38;;;16.12;47.61
70730;BME280;58315;53.336;55.932;2023-05-22T02:14:13;100884.00;;;16.22;47.35
70730;BME280;58315;53.336;55.932;2023-05-22T02:16:41;100888.34;;;16.23;47.47
70730;BME280;58315;53.336;55.932;2023-05-22T02:19:07;100885.41;;;16.36;46.94
70730;BME280;58315;53.336;55.932;2023-05-22T02:21:53;100885.06;;;16.49;46.57
70730;BME280;58315;53.336;55.932;2023-05-22T02:24:20;100888.41;;;16.60;46.42
70730;BME280;58315;53.336;55.932;2023-05-22T02:26:48;100890.63;;;16.65;46.34
70730;BME280;58315;53.336;55.932;2023-05-22T02:29:14;100902.41;;;16.72;46.41
70730;BME280;58315;53.336;55.932;2023-05-22T02:31:40;100889.38;;;16.79;46.30
70730;BME280;58315;53.336;55.932;2023-05-22T02:34:06;100893.97;;;16.86;46.40
70730;BME280;58315;53.336;55.932;2023-05-22T02:36:32;100901.78;;;16.98;46.47
70730;BME280;58315;53.336;55.932;2023-05-22T02:38:58;100887.84;;;17.04;46.16
70730;BME280;58315;53.336;55.932;2023-05-22T02:41:25;100885.41;;;17.10;45.96
70730;BME280;58315;53.336;55.932;2023-05-22T02:43:51;100889.69;;;17.21;45.99
70730;BME280;58315;53.336;55.932;2023-05-22T02:46:17;100883.72;;;17.37;45.73
70730;BME280;58315;53.336;55.932;2023-05-22T02:48:44;100891.56;;;17.56;45.46
70730;BME280;58315;53.336;55.932;2023-05-22T02:51:10;100888.84;;;17.84;45.35
70730;BME280;58315;53.336;55.932;2023-05-22T02:53:36;100890.72;;;18.10;44.97
70730;BME280;58315;53.336;55.932;2023-05-22T02:56:09;100893.78;;;19.01;44.59
70730;BME280;58315;53.336;55.932;2023-05-22T02:58:38;100890.63;;;20.38;43.23
70730;BME280;58315;53.336;55.932;2023-05-22T03:01:04;100885.78;;;21.82;40.45
70730;BME280;58315;53.336;55.932;2023-05-22T03:03:34;100888.09;;;23.05;37.66
70730;BME280;58315;53.336;55.932;2023-05-22T03:06:00;100893.13;;;24.09;38.02
70730;BME280;58315;53.336;55.932;2023-05-22T03:08:29;100889.78;;;25.05;35.78
70730;BME280;58315;53.336;55.932;2023-05-22T03:10:59;100885.50;;;26.05;34.84
70730;BME280;58315;53.336;55.932;2023-05-22T03:13:25;100892.66;;;26.84;34.29
70730;BME280;58315;53.336;55.932;2023-05-22T03:15:51;100892.31;;;27.63;32.08
70730;BME280;58315;53.336;55.932;2023-05-22T03:18:18;100896.06;;;28.19;31.55
70730;BME280;58315;53.336;55.932;2023-05-22T03:20:45;100891.66;;;28.68;30.27
70730;BME280;58315;53.336;55.932;2023-05-22T03:23:12;100892.06;;;29.39;29.94
70730;BME280;58315;53.336;55.932;2023-05-22T03:25:39;100885.38;;;29.95;28.63
70730;BME280;58315;53.336;55.932;2023-05-22T03:28:05;100883.38;;;30.14;27.96
70730;BME280;58315;53.336;55.932;2023-05-22T03:30:36;100890.25;;;30.51;26.43
70730;BME280;58315;53.336;55.932;2023-05-22T03:33:17;100886.81;;;30.80;26.92
70730;BME280;58315;53.336;55.932;2023-05-22T03:35:43;100889.41;;;31.15;26.92
70730;BME280;58315;53.336;55.932;2023-05-22T03:38:10;100893.31;;;31.31;26.68
70730;BME280;58315;53.336;55.932;2023-05-22T03:40:37;100893.59;;;31.91;25.81
70730;BME280;58315;53.336;55.932;2023-05-22T03:43:03;100899.38;;;32.29;26.93
70730;BME280;58315;53.336;55.932;2023-05-22T03:45:29;100892.41;;;32.55;26.19
70730;BME280;58315;53.336;55.932;2023-05-22T03:47:56;100901.19;;;32.79;25.27
70730;BME280;58315;53.336;55.932;2023-05-22T03:50:23;100890.25;;;32.79;25.66
70730;BME280;58315;53.336;55.932;2023-05-22T03:52:49;100891.53;;;32.93;25.42
70730;BME280;58315;53.336;55.932;2023-05-22T03:55:15;100892.31;;;33.37;24.82
70730;BME280;58315;53.336;55.932;2023-05-22T03:57:42;100885.28;;;33.74;23.79
70730;BME280;58315;53.336;55.932;2023-05-22T04:00:08;100885.06;;;33.75;23.62
70730;BME280;58315;53.336;55.932;2023-05-22T04:02:40;100882.13;;;33.87;23.82
70730;BME280;58315;53.336;55.932;2023-05-22T04:05:11;100880.63;;;34.01;23.63
70730;BME280;58315;53.336;55.932;2023-05-22T04:07:37;100884.78;;;34.09;23.61
70730;BME280;58315;53.336;55.932;2023-05-22T04:10:04;100879.00;;;34.05;23.44
70730;BME280;58315;53.336;55.932;2023-05-22T04:12:32;100878.25;;;34.58;23.50
70730;BME280;58315;53.336;55.932;2023-05-22T04:14:59;100876.91;;;35.48;21.76
70730;BME280;58315;53.336;55.932;2023-05-22T04:17:30;100876.91;;;36.30;20.89
70730;BME280;58315;53.336;55.932;2023-05-22T04:19:59;100870.81;;;36.38;20.58
70730;BME280;58315;53.336;55.932;2023-05-22T04:22:26;100871.75;;;36.99;20.35
70730;BME280;58315;53.336;55.932;2023-05-22T04:24:56;100865.53;;;36.73;19.94
70730;BME280;58315;53.336;55.932;2023-05-22T04:27:24;100870.84;;;37.13;20.60
70730;BME280;58315;53.336;55.932;2023-05-22T04:29:51;100866.38;;;37.62;19.98
70730;BME280;58315;53.336;55.932;2023-05-22T04:32:17;100868.63;;;37.94;19.58
70730;BME280;58315;53.336;55.932;2023-05-22T04:34:47;100866.13;;;37.58;18.09
70730;BME280;58315;53.336;55.932;2023-05-22T04:37:15;100865.28;;;37.24;19.11
70730;BME280;58315;53.336;55.932;2023-05-22T04:39:41;100861.84;;;38.10;18.97
70730;BME280;58315;53.336;55.932;2023-05-22T04:42:07;100867.25;;;38.69;18.36
70730;BME280;58315;53.336;55.932;2023-05-22T04:44:34;100856.81;;;38.42;17.70
70730;BME280;58315;53.336;55.932;2023-05-22T04:47:01;100868.91;;;38.46;17.94
70730;BME280;58315;53.336;55.932;2023-05-22T04:49:27;100867.63;;;38.62;17.54
70730;BME280;58315;53.336;55.932;2023-05-22T04:51:56;100857.66;;;39.09;16.44
70730;BME280;58315;53.336;55.932;2023-05-22T04:54:23;100859.09;;;39.01;16.99
70730;BME280;58315;53.336;55.932;2023-05-22T04:56:49;100859.50;;;38.95;16.56
70730;BME280;58315;53.336;55.932;2023-05-22T04:59:19;100857.84;;;39.13;16.48
70730;BME280;58315;53.336;55.932;2023-05-22T05:01:48;100863.53;;;39.21;16.63
70730;BME280;58315;53.336;55.932;2023-05-22T05:04:15;100865.13;;;39.46;16.53
70730;BME280;58315;53.336;55.932;2023-05-22T05:06:42;100870.56;;;39.84;15.88
70730;BME280;58315;53.336;55.932;2023-05-22T05:09:09;100861.41;;;39.70;15.42
70730;BME280;58315;53.336;55.932;2023-05-22T05:11:35;100863.94;;;39.99;16.41
70730;BME280;58315;53.336;55.932;2023-05-22T05:14:03;100864.63;;;40.51;15.56
70730;BME280;58315;53.336;55.932;2023-05-22T05:16:29;100865.94;;;40.40;15.18
70730;BME280;58315;53.336;55.932;2023-05-22T05:18:55;100863.50;;;40.38;15.25
70730;BME280;58315;53.336;55.932;2023-05-22T05:21:22;100862.34;;;40.81;15.01
70730;BME280;58315;53.336;55.932;2023-05-22T05:23:48;100866.69;;;40.45;15.36
70730;BME280;58315;53.336;55.932;2023-05-22T05:26:14;100873.13;;;40.96;15.22
70730;BME280;58315;53.336;55.932;2023-05-22T05:28:40;100869.00;;;41.07;14.93
70730;BME280;58315;53.336;55.932;2023-05-22T05:31:07;100872.50;;;41.35;15.04
70730;BME280;58315;53.336;55.932;2023-05-22T05:33:53;100869.81;;;41.66;14.42
70730;BME280;58315;53.336;55.932;2023-05-22T05:36:29;100860.13;;;41.55;14.54
70730;BME280;58315;53.336;55.932;2023-05-22T05:38:56;100860.84;;;41.92;14.17
70730;BME280;58315;53.336;55.932;2023-05-22T05:41:25;100860.53;;;41.71;14.77
70730;BME280;58315;53.336;55.932;2023-05-22T05:43:57;100851.13;;;42.03;13.96
70730;BME280;58315;53.336;55.932;2023-05-22T05:46:27;100854.31;;;41.88;13.71
70730;BME280;58315;53.336;55.932;2023-05-22T05:48:54;100849.94;;;41.28;13.84
70730;BME280;58315;53.336;55.932;2023-05-22T05:51:21;100851.44;;;41.34;14.88
70730;BME280;58315;53.336;55.932;2023-05-22T05:53:48;100850.06;;;41.68;14.37
70730;BME280;58315;53.336;55.932;2023-05-22T05:56:14;100845.97;;;41.88;14.31
70730;BME280;58315;53.336;55.932;2023-05-22T05:58:41;100842.78;;;42.03;14.27
70730;BME280;58315;53.336;55.932;2023-05-22T06:01:34;100845.97;;;41.43;13.90
70730;BME280;58315;53.336;55.932;2023-05-22T06:04:01;100845.22;;;41.74;13.91
70730;BME280;58315;53.336;55.932;2023-05-22T06:06:31;100840.88;;;41.14;14.67
70730;BME280;58315;53.336;55.932;2023-05-22T06:09:04;100836.53;;;41.22;14.28
70730;BME280;58315;53.336;55.932;2023-05-22T06:11:35;100825.91;;;40.87;14.83
70730;BME280;58315;53.336;55.932;2023-05-22T06:14:02;100841.03;;;40.81;14.87
70730;BME280;58315;53.336;55.932;2023-05-22T06:16:29;100841.13;;;40.76;15.23
70730;BME280;58315;53.336;55.932;2023-05-22T06:18:57;100830.03;;;40.76;15.11
70730;BME280;58315;53.336;55.932;2023-05-22T06:21:23;100838.19;;;40.45;14.59
70730;BME280;58315;53.336;55.932;2023-05-22T06:23:53;100827.00;;;39.43;15.24
70730;BME280;58315;53.336;55.932;2023-05-22T06:26:19;100831.91;;;38.47;16.04
70730;BME280;58315;53.336;55.932;2023-05-22T06:28:47;100820.00;;;37.30;16.34
70730;BME280;58315;53.336;55.932;2023-05-22T06:31:14;100819.66;;;36.48;17.10
70730;BME280;58315;53.336;55.932;2023-05-22T06:33:43;100820.88;;;35.55;17.68
70730;BME280;58315;53.336;55.932;2023-05-22T06:36:09;100822.88;;;34.76;18.42
70730;BME280;58315;53.336;55.932;2023-05-22T06:38:36;100819.28;;;34.13;19.07
70730;BME280;58315;53.336;55.932;2023-05-22T06:41:04;100815.31;;;33.61;19.66
70730;BME280;58315;53.336;55.932;2023-05-22T06:43:30;100812.69;;;33.44;19.73
70730;BME280;58315;53.336;55.932;2023-05-22T06:46:01;100811.41;;;33.25;20.38
70730;BME280;58315;53.336;55.932;2023-05-22T06:48:46;100804.69;;;33.10;19.69
70730;BME280;58315;53.336;55.932;2023-05-22T06:51:35;100806.03;;;32.86;20.27
70730;BME280;58315;53.336;55.932;2023-05-22T06:54:06;100809.63;;;32.64;20.46
70730;BME280;58315;53.336;55.932;2023-05-22T06:56:34;100805.69;;;32.55;20.77
70730;BME280;58315;53.336;55.932;2023-05-22T06:59:03;100804.03;;;32.54;20.97
70730;BME280;58315;53.336;55.932;2023-05-22T07:01:49;100800.31;;;32.22;20.31
70730;BME280;58315;53.336;55.932;2023-05-22T07:04:20;100801.34;;;31.82;20.75
70730;BME280;58315;53.336;55.932;2023-05-22T07:06:54;100800.44;;;31.93;20.97
70730;BME280;58315;53.336;55.932;2023-05-22T07:09:21;100789.78;;;32.13;21.13
70730;BME280;58315;53.336;55.932;2023-05-22T07:11:48;100789.28;;;32.16;21.03
70730;BME280;58315;53.336;55.932;2023-05-22T07:14:15;100791.38;;;32.09;21.10
70730;BME280;58315;53.336;55.932;2023-05-22T07:16:44;100789.75;;;31.75;21.25
70730;BME280;58315;53.336;55.932;2023-05-22T07:19:11;100790.56;;;31.58;21.67
70730;BME280;58315;53.336;55.932;2023-05-22T07:21:38;100786.25;;;31.62;21.03
70730;BME280;58315;53.336;55.932;2023-05-22T07:24:05;100788.31;;;31.55;21.50
70730;BME280;58315;53.336;55.932;2023-05-22T07:26:39;100789.50;;;31.76;21.19
70730;BME280;58315;53.336;55.932;2023-05-22T07:29:12;100783.78;;;31.94;21.42
70730;BME280;58315;53.336;55.932;2023-05-22T07:31:39;100786.88;;;32.20;20.77
70730;BME280;58315;53.336;55.932;2023-05-22T07:34:05;100792.38;;;32.42;19.68
70730;BME280;58315;53.336;55.932;2023-05-22T07:36:31;100785.16;;;32.36;20.02
70730;BME280;58315;53.336;55.932;2023-05-22T07:38:57;100785.47;;;32.17;20.50
70730;BME280;58315;53.336;55.932;2023-05-22T07:41:24;100778.94;;;32.18;19.98
70730;BME280;58315;53.336;55.932;2023-05-22T07:43:52;100781.59;;;32.13;19.99
70730;BME280;58315;53.336;55.932;2023-05-22T07:46:24;100788.78;;;32.20;20.54
70730;BME280;58315;53.336;55.932;2023-05-22T07:49:13;100777.25;;;31.79;18.86
70730;BME280;58315;53.336;55.932;2023-05-22T07:51:45;100784.94;;;31.48;19.75
70730;BME280;58315;53.336;55.932;2023-05-22T07:54:11;100779.47;;;31.48;19.79
70730;BME280;58315;53.336;55.932;2023-05-22T07:56:44;100778.50;;;31.71;20.33
70730;BME280;58315;53.336;55.932;2023-05-22T07:59:11;100781.75;;;32.07;20.20
70730;BME280;58315;53.336;55.932;2023-05-22T08:01:38;100782.53;;;32.02;19.09
70730;BME280;58315;53.336;55.932;2023-05-22T08:04:06;100790.81;;;31.74;19.50
70730;BME280;58315;53.336;55.932;2023-05-22T08:06:33;100778.66;;;31.31;20.05
70730;BME280;58315;53.336;55.932;2023-05-22T08:09:02;100778.19;;;31.22;20.27
70730;BME280;58315;53.336;55.932;2023-05-22T08:11:32;100772.81;;;31.27;20.02
70730;BME280;58315;53.336;55.932;2023-05-22T08:13:58;100779.47;;;31.48;20.99
70730;BME280;58315;53.336;55.932;2023-05-22T08:16:25;100777.16;;;31.57;20.30
70730;BME280;58315;53.336;55.932;2023-05-22T08:18:51;100771.22;;;31.14;20.29
70730;BME280;58315;53.336;55.932;2023-05-22T08:21:17;100768.59;;;31.19;20.27
70730;BME280;58315;53.336;55.932;2023-05-22T08:23:44;100766.78;;;31.08;19.51
70730;BME280;58315;53.336;55.932;2023-05-22T08:26:10;100763.59;;;30.99;20.64
70730;BME280;58315;53.336;55.932;2023-05-22T08:28:36;100763.84;;;31.15;20.63
70730;BME280;58315;53.336;55.932;2023-05-22T08:31:06;100767.38;;;31.44;20.39
70730;BME280;58315;53.336;55.932;2023-05-22T08:33:32;100770.47;;;31.48;20.90
70730;BME280;58315;53.336;55.932;2023-05-22T08:35:58;100764.91;;;31.42;19.99
70730;BME280;58315;53.336;55.932;2023-05-22T08:38:25;100757.63;;;31.48;20.06
70730;BME280;58315;53.336;55.932;2023-05-22T08:40:52;100755.13;;;31.80;20.02
70730;BME280;58315;53.336;55.932;2023-05-22T08:43:21;100751.88;;;31.83;19.41
70730;BME280;58315;53.336;55.932;2023-05-22T08:46:14;100750.34;;;31.87;19.75
70730;BME280;58315;53.336;55.932;2023-05-22T08:48:41;100751.81;;;31.78;19.28
70730;BME280;58315;53.336;55.932;2023-05-22T08:51:07;100745.69;;;31.88;19.31
70730;BME280;58315;53.336;55.932;2023-05-22T08:53:39;100748.34;;;31.83;18.63
70730;BME280;58315;53.336;55.932;2023-05-22T08:56:06;100746.31;;;31.56;18.10
70730;BME280;58315;53.336;55.932;2023-05-22T08:58:36;100749.25;;;31.55;18.06
70730;BME280;58315;53.336;55.932;2023-05-22T09:01:03;100745.63;;;31.66;17.96
70730;BME280;58315;53.336;55.932;2023-05-22T09:03:30;100742.97;;;31.54;18.05
70730;BME280;58315;53.336;55.932;2023-05-22T09:06:00;100737.50;;;31.20;18.06
70730;BME280;58315;53.336;55.932;2023-05-22T09:08:26;100743.66;;;30.99;18.21
70730;BME280;58315;53.336;55.932;2023-05-22T09:10:53;100737.91;;;31.12;18.59
70730;BME280;58315;53.336;55.932;2023-05-22T09:13:28;100739.69;;;31.35;17.96
70730;BME280;58315;53.336;55.932;2023-05-22T09:18:30;100739.81;;;31.62;18.17
70730;BME280;58315;53.336;55.932;2023-05-22T09:20:57;100730.31;;;31.48;17.66
70730;BME280;58315;53.336;55.932;2023-05-22T09:23:26;100730.91;;;31.33;18.26
70730;BME280;58315;53.336;55.932;2023-05-22T09:25:56;100730.84;;;31.45;18.52
70730;BME280;58315;53.336;55.932;2023-05-22T09:28:23;100726.84;;;31.36;17.99
70730;BME280;58315;53.336;55.932;2023-05-22T09:30:51;100718.81;;;31.46;18.18
70730;BME280;58315;53.336;55.932;2023-05-22T09:33:17;100726.25;;;31.67;18.46
70730;BME280;58315;53.336;55.932;2023-05-22T09:35:47;100722.25;;;31.92;18.14
70730;BME280;58315;53.336;55.932;2023-05-22T09:38:14;100725.06;;;31.97;18.33
70730;BME280;58315;53.336;55.932;2023-05-22T09:40:40;100724.47;;;31.95;18.27
70730;BME280;58315;53.336;55.932;2023-05-22T09:43:10;100718.00;;;32.01;18.41
70730;BME280;58315;53.336;55.932;2023-05-22T09:45:37;100719.16;;;32.05;18.35
70730;BME280;58315;53.336;55.932;2023-05-22T09:48:04;100715.22;;;31.96;18.19
70730;BME280;58315;53.336;55.932;2023-05-22T09:50:31;100716.63;;;31.82;18.21
70730;BME280;58315;53.336;55.932;2023-05-22T09:53:01;100716.81;;;31.75;18.29
70730;BME280;58315;53.336;55.932;2023-05-22T09:55:29;100714.28;;;31.35;17.44
70730;BME280;58315;53.336;55.932;2023-05-22T09:57:56;100720.69;;;31.29;18.17
70730;BME280;58315;53.336;55.932;2023-05-22T10:00:23;100714.00;;;31.19;17.66
70730;BME280;58315;53.336;55.932;2023-05-22T10:02:58;100711.28;;;31.19;17.94
70730;BME280;58315;53.336;55.932;2023-05-22T10:05:30;100712.41;;;31.07;18.51
70730;BME280;58315;53.336;55.932;2023-05-22T10:08:03;100716.56;;;31.09;19.43
70730;BME280;58315;53.336;55.932;2023-05-22T10:10:31;100713.78;;;30.92;18.57
70730;BME280;58315;53.336;55.932;2023-05-22T10:13:00;100710.81;;;30.65;18.61
70730;BME280;58315;53.336;55.932;2023-05-22T10:15:28;100710.06;;;30.82;18.69
70730;BME280;58315;53.336;55.932;2023-05-22T10:17:55;100720.53;;;31.02;18.56
70730;BME280;58315;53.336;55.932;2023-05-22T10:20:23;100712.75;;;31.10;18.52
70730;BME280;58315;53.336;55.932;2023-05-22T10:22:50;100706.31;;;31.16;17.91
70730;BME280;58315;53.336;55.932;2023-05-22T10:25:18;100703.22;;;31.30;18.57
70730;BME280;58315;53.336;55.932;2023-05-22T10:27:45;100709.78;;;31.29;18.58
70730;BME280;58315;53.336;55.932;2023-05-22T10:33:24;100705.47;;;30.99;17.96
70730;BME280;58315;53.336;55.932;2023-05-22T10:36:09;100713.38;;;31.01;18.03
70730;BME280;58315;53.336;55.932;2023-05-22T10:38:56;100712.34;;;31.18;18.58
70730;BME280;58315;53.336;55.932;2023-05-22T10:41:29;100705.69;;;30.81;18.13
70730;BME280;58315;53.336;55.932;2023-05-22T10:43:56;100706.66;;;30.74;18.51
70730;BME280;58315;53.336;55.932;2023-05-22T10:46:23;100717.25;;;30.59;18.74
70730;BME280;58315;53.336;55.932;2023-05-22T10:48:52;100711.41;;;30.67;18.61
70730;BME280;58315;53.336;55.932;2023-05-22T10:51:21;100709.56;;;30.85;19.17
70730;BME280;58315;53.336;55.932;2023-05-22T10:53:52;100713.06;;;30.97;18.43
70730;BME280;58315;53.336;55.932;2023-05-22T10:56:18;100710.16;;;31.04;19.01
70730;BME280;58315;53.336;55.932;2023-05-22T10:58:55;100710.19;;;31.20;18.88
70730;BME280;58315;53.336;55.932;2023-05-22T11:01:24;100710.59;;;31.29;17.94
70730;BME280;58315;53.336;55.932;2023-05-22T11:03:57;100699.22;;;31.32;18.37
70730;BME280;58315;53.336;55.932;2023-05-22T11:08:59;100696.66;;;31.59;18.21
70730;BME280;58315;53.336;55.932;2023-05-22T11:11:25;100701.25;;;31.76;18.55
70730;BME280;58315;53.336;55.932;2023-05-22T11:13:52;100696.59;;;31.93;18.31
70730;BME280;58315;53.336;55.932;2023-05-22T11:16:30;100701.25;;;32.14;17.84
70730;BME280;58315;53.336;55.932;2023-05-22T11:19:06;100692.81;;;31.99;17.74
70730;BME280;58315;53.336;55.932;2023-05-22T11:21:45;100688.44;;;31.98;18.17
70730;BME280;58315;53.336;55.932;2023-05-22T11:24:14;100687.56;;;31.76;17.78
70730;BME280;58315;53.336;55.932;2023-05-22T11:26:41;100680.66;;;31.51;18.45
70730;BME280;58315;53.336;55.932;2023-05-22T11:29:08;100683.44;;;31.34;18.53
70730;BME280;58315;53.336;55.932;2023-05-22T11:31:35;100687.34;;;31.10;18.59
70730;BME280;58315;53.336;55.932;2023-05-22T11:34:04;100684.59;;;30.93;18.55
70730;BME280;58315;53.336;55.932;2023-05-22T11:36:31;100688.91;;;30.89;18.75
70730;BME280;58315;53.336;55.932;2023-05-22T11:38:58;100681.81;;;30.88;18.94
70730;BME280;58315;53.336;55.932;2023-05-22T11:41:34;100690.59;;;30.90;18.60
70730;BME280;58315;53.336;55.932;2023-05-22T11:44:01;100684.63;;;30.64;19.15
70730;BME280;58315;53.336;55.932;2023-05-22T11:46:27;100683.28;;;30.38;18.63
70730;BME280;58315;53.336;55.932;2023-05-22T11:48:55;100675.78;;;30.57;18.93
70730;BME280;58315;53.336;55.932;2023-05-22T11:51:21;100676.53;;;30.69;19.00
70730;BME280;58315;53.336;55.932;2023-05-22T11:53:47;100681.31;;;30.91;18.83
70730;BME280;58315;53.336;55.932;2023-05-22T11:56:13;100683.78;;;30.92;18.24
70730;BME280;58315;53.336;55.932;2023-05-22T11:58:40;100685.63;;;31.04;18.16
70730;BME280;58315;53.336;55.932;2023-05-22T12:01:06;100676.94;;;31.07;17.54
70730;BME280;58315;53.336;55.932;2023-05-22T12:03:32;100679.41;;;30.91;17.90
70730;BME280;58315;53.336;55.932;2023-05-22T12:06:00;100674.53;;;31.10;18.24
70730;BME280;58315;53.336;55.932;2023-05-22T12:08:26;100674.91;;;31.31;17.97
70730;BME280;58315;53.336;55.932;2023-05-22T12:10:53;100682.75;;;31.44;18.22
70730;BME280;58315;53.336;55.932;2023-05-22T12:13:24;100675.13;;;31.46;17.72
70730;BME280;58315;53.336;55.932;2023-05-22T12:15:53;100673.56;;;31.33;17.45
70730;BME280;58315;53.336;55.932;2023-05-22T12:18:19;100681.06;;;31.26;18.06
70730;BME280;58315;53.336;55.932;2023-05-22T12:20:45;100674.72;;;31.20;18.28
70730;BME280;58315;53.336;55.932;2023-05-22T12:23:25;100677.53;;;31.09;17.90
70730;BME280;58315;53.336;55.932;2023-05-22T12:25:58;100675.19;;;30.84;18.47
70730;BME280;58315;53.336;55.932;2023-05-22T12:28:25;100671.97;;;30.58;18.31
70730;BME280;58315;53.336;55.932;2023-05-22T12:30:52;100664.19;;;30.50;18.07
70730;BME280;58315;53.336;55.932;2023-05-22T12:33:20;100664.94;;;30.62;18.34
70730;BME280;58315;53.336;55.932;2023-05-22T12:35:50;100667.88;;;30.72;17.80
70730;BME280;58315;53.336;55.932;2023-05-22T12:38:20;100672.34;;;30.79;18.23
70730;BME280;58315;53.336;55.932;2023-05-22T12:40:48;100666.91;;;30.79;17.86
70730;BME280;58315;53.336;55.932;2023-05-22T12:43:14;100663.78;;;30.87;18.02
70730;BME280;58315;53.336;55.932;2023-05-22T12:45:40;100667.66;;;30.91;17.75
70730;BME280;58315;53.336;55.932;2023-05-22T12:48:07;100665.28;;;30.94;17.81
70730;BME280;58315;53.336;55.932;2023-05-22T12:50:34;100660.03;;;30.93;17.62
70730;BME280;58315;53.336;55.932;2023-05-22T12:53:00;100667.84;;;31.01;17.80
70730;BME280;58315;53.336;55.932;2023-05-22T12:55:26;100659.31;;;31.14;17.42
70730;BME280;58315;53.336;55.932;2023-05-22T12:57:52;100662.81;;;31.27;17.25
70730;BME280;58315;53.336;55.932;2023-05-22T13:00:19;100655.38;;;31.39;17.69
70730;BME280;58315;53.336;55.932;2023-05-22T13:02:48;100653.03;;;31.48;17.72
70730;BME280;58315;53.336;55.932;2023-05-22T13:05:14;100654.69;;;31.49;17.89
70730;BME280;58315;53.336;55.932;2023-05-22T13:07:40;100656.13;;;31.34;17.67
70730;BME280;58315;53.336;55.932;2023-05-22T13:10:07;100654.63;;;31.27;17.82
70730;BME280;58315;53.336;55.932;2023-05-22T13:12:33;100661.06;;;31.20;17.75
70730;BME280;58315;53.336;55.932;2023-05-22T13:15:00;100652.22;;;31.13;18.25